Nearby METAR Reports

 

KSNK - Snyder/Winston, Texas, USA
Distance from station: SSE 25mi, 41km
Updated: Tue, 21-Sep-2021 2:15pm CDT

 
2021/09/21 19:15 KSNK 211915Z AUTO RMK TEMPORAIRILY INOPERATIVE
KSWW - Sweetwater, Texas, USA
Distance from station: SE 56mi, 90km
Updated: Tue, 21-Sep-2021 2:15pm CDT
Clear
Clear
 Wind from NNE
Wind: NNE 21 mph , 33 km/h, Gust: 33 mph , 54 km/h
Temperature: 79°F , 26°C
Dew Point: 36°F , 2°C
Humidity: 21%
Barometer: 30.35 inHg , 1027.8 hPa
Clouds: Clear
Visibility: 10 miles , 16 km
2021/09/21 19:15 KSWW 211915Z AUTO 02018G29KT 10SM CLR 26/02 A3035 RMK AO2 T02560023
 
KLBB - Lubbock, Texas, USA
Distance from station: NW 59mi, 94km
Updated: Tue, 21-Sep-2021 1:53pm CDT
Partly cloudy
Partly cloudy
 Wind from NNE
Wind: NNE 17 mph , 28 km/h, Gust: 29 mph , 46 km/h
Temperature: 75°F , 24°C
Dew Point: 37°F , 3°C
Humidity: 25%
Barometer: 30.41 inHg , 1029.8 hPa
Clouds: Partly cloudy
Visibility: 10 miles , 16 km
Cloud details: Few Clouds 7500 ft
Few Clouds 15000 ft
Partly cloudy 25000 ft
2021/09/21 18:53 KLBB 211853Z 02015G25KT 10SM FEW075 FEW150 SCT250 24/03 A3041 RMK AO2 PK WND 03030/1811 SLP256 T02390028
KPVW - Plainview, Texas, USA
Distance from station: NNW 85mi, 137km
Updated: Tue, 21-Sep-2021 2:15pm CDT
Clear
Clear
 Wind from NE
Wind: NE 17 mph , 28 km/h, Gust: 23 mph , 37 km/h
Temperature: 72°F , 22°C
Dew Point: 41°F , 5°C
Humidity: 33%
Barometer: 30.42 inHg , 1030.1 hPa
Clouds: Clear
Visibility: 10 miles , 16 km
2021/09/21 19:15 KPVW 211915Z AUTO 05015G20KT 10SM CLR 22/05 A3042 RMK AO2 T02230048
 
KDYS - Dyess Afb/Abilen, Texas, USA
Distance from station: ESE 88mi, 141km
Updated: Tue, 21-Sep-2021 2:00pm CDT
Partly cloudy
Partly cloudy
 Wind from NNE
Wind: NNE 23 mph , 37 km/h, Gust: 31 mph , 50 km/h
Temperature: 81°F , 27°C
Dew Point: 37°F , 3°C
Humidity: 21%
Barometer: 30.27 inHg , 1025.1 hPa
Clouds: Partly cloudy
Visibility: 10 miles , 16 km
Cloud details: Few Clouds 14000 ft
Few Clouds 16000 ft
Partly cloudy 19000 ft
2021/09/21 19:00 KDYS 211900Z 03020G27KT 10SM FEW140 FEW160 SCT190 27/03 A3027 RMK SLP207 $
KGNC - Seminole, Texas, USA
Distance from station: WSW 89mi, 144km
Updated: Tue, 21-Sep-2021 2:15pm CDT
Clear
Clear
 Wind from NE
Wind: NE 16 mph , 26 km/h, Gust: 26 mph , 43 km/h
Temperature: 75°F , 24°C
Dew Point: 39°F , 4°C
Humidity: 27%
Barometer: 30.44 inHg , 1030.8 hPa
Clouds: Clear
Visibility: 10 miles , 16 km
2021/09/21 19:15 KGNC 211915Z AUTO 05014G23KT 10SM CLR 24/04 A3044 RMK AO2 T02410037
 
KE11 - Andrews, Texas, USA
Distance from station: WSW 93mi, 149km
Updated: Tue, 21-Sep-2021 2:15pm CDT
Clear
Clear
 Wind from NE
Wind: NE 20 mph , 31 km/h, Gust: 26 mph , 43 km/h
Temperature: 77°F , 25°C
Dew Point: 36°F , 2°C
Humidity: 22%
Barometer: 30.39 inHg , 1029.1 hPa
Clouds: Clear
Visibility: 10 miles , 16 km
2021/09/21 19:15 KE11 211915Z AUTO 04017G23KT 10SM CLR 25/02 A3039 RMK AO2 T02470021
KABI - Abilene, Texas, USA
Distance from station: ESE 96mi, 154km
Updated: Tue, 21-Sep-2021 1:52pm CDT
Clear
Clear
 Wind from N
Wind: N 23 mph , 37 km/h, Gust: 38 mph , 61 km/h
Temperature: 82°F , 28°C
Dew Point: 43°F , 6°C
Humidity: 25%
Barometer: 30.27 inHg , 1025.1 hPa
Clouds: Clear
Visibility: 10 miles , 16 km
2021/09/21 18:52 KABI 211852Z 01020G33KT 10SM CLR 28/06 A3027 RMK AO2 PK WND 01034/1758 SLP224 T02830056
 
KMAF - Midland, Texas, USA
Distance from station: SW 96mi, 154km
Updated: Tue, 21-Sep-2021 1:53pm CDT
Clear
Clear
 Wind from NE
Wind: NE 25 mph , 41 km/h, Gust: 35 mph , 56 km/h
Temperature: 77°F , 25°C
Dew Point: 37°F , 3°C
Humidity: 24%
Barometer: 30.34 inHg , 1027.4 hPa
Clouds: Clear
Visibility: 10 miles , 16 km
2021/09/21 18:53 KMAF 211853Z 05022G30KT 10SM CLR 25/03 A3034 RMK AO2 PK WND 05032/1841 SLP230 T02500033
KCDS - Childress, Texas, USA
Distance from station: NNE 110mi, 177km
Updated: Tue, 21-Sep-2021 1:53pm CDT
Few Clouds
Few Clouds
 Wind from NNE
Wind: NNE 22 mph , 35 km/h, Gust: 33 mph , 54 km/h
Temperature: 79°F , 26°C
Dew Point: 39°F , 4°C
Humidity: 24%
Barometer: 30.37 inHg , 1028.4 hPa
Clouds: Few Clouds
Visibility: 10 miles , 16 km
Cloud details: Few Clouds 11000 ft
2021/09/21 18:53 KCDS 211853Z AUTO 02019G29KT 10SM FEW110 26/04 A3037 RMK AO2 PK WND 01029/1850 SLP262 T02560044
 
KSJT - San Angelo, Texas, USA
Distance from station: SSE 121mi, 194km
Updated: Tue, 21-Sep-2021 1:51pm CDT
Clear
Clear
 Wind from NNE
Wind: NNE 23 mph , 37 km/h, Gust: 30 mph , 48 km/h
Temperature: 84°F , 29°C
Dew Point: 46°F , 8°C
Humidity: 27%
Barometer: 30.24 inHg , 1024 hPa
Clouds: Clear
Visibility: 10 miles , 16 km
2021/09/21 18:51 KSJT 211851Z 02020G26KT 10SM CLR 29/08 A3024 RMK AO2 PK WND 02029/1753 SLP214 T02890078
KHOB - Hobbs/Lea Co., New Mexico, USA
Distance from station: WSW 122mi, 196km
Updated: Tue, 21-Sep-2021 1:50pm CDT
Clear
Clear
 Wind from NE
Wind: NE 20 mph , 31 km/h, Gust: 29 mph , 46 km/h
Temperature: 75°F , 24°C
Dew Point: 37°F , 3°C
Humidity: 25%
Barometer: 30.42 inHg , 1030.1 hPa
Clouds: Clear
Visibility: 10 miles , 16 km
2021/09/21 18:50 KHOB 211850Z 05017G25KT 10SM SKC 24/03 A3042
 
KCOM - Coleman Muni, Texas, USA
Distance from station: SE 131mi, 212km
Updated: Tue, 21-Sep-2021 2:15pm CDT
Clear
Clear
 Wind from NNE
Wind: NNE 23 mph , 37 km/h, Gust: 33 mph , 54 km/h
Temperature: 84°F , 29°C
Dew Point: 45°F , 7°C
Humidity: 25%
Barometer: 30.22 inHg , 1023.4 hPa
Clouds: Clear
Visibility: 10 miles , 16 km
2021/09/21 19:15 KCOM 211915Z AUTO 02020G29KT 10SM CLR 29/07 A3022 RMK AO2 T02910074
KBKD - Breckenridge, Texas, USA
Distance from station: E 134mi, 215km
Updated: Tue, 21-Sep-2021 2:15pm CDT
Haze, Clear
Haze, Clear
 Wind from N
Wind: N 16 mph , 26 km/h, Gust: 24 mph , 39 km/h
Temperature: 86°F , 30°C
Dew Point: 43°F , 6°C
Humidity: 22%
Barometer: 30.25 inHg , 1024.4 hPa
Summary: Haze
Clouds: Clear
Visibility: 5 miles , 8 km
2021/09/21 19:15 KBKD 211915Z AUTO 01014G21KT 5SM HZ CLR 30/06 A3025 RMK AO2 T02950059
 
KF05 - Vernon Wilbarger, Texas, USA
Distance from station: NE 137mi, 220km
Updated: Tue, 21-Sep-2021 2:15pm CDT
Overcast
Overcast
 Wind from NNE
Wind: NNE 17 mph , 28 km/h, Gust: 28 mph , 44 km/h
Temperature: 81°F , 27°C
Dew Point: 39°F , 4°C
Humidity: 23%
Barometer: 30.32 inHg , 1026.8 hPa
Clouds: Overcast
Visibility: 10 miles , 16 km
Cloud details: Overcast 11000 ft
2021/09/21 19:15 KF05 211915Z AUTO 03015G24KT 10SM OVC110 27/04 A3032 RMK AO2 T02730035